Time;durP1;ratioP1;P1;durP2;ratioP2;P2;SDS_P1;SDS_P2;PMS_P1;PMS_P2;Temp;Humidity;BMP_temperature;BMP_pressure;BME280_temperature;BME280_humidity;BME280_pressure;Samples;Min_cycle;Max_cycle;Signal;HPM_P1;HPM_P2
2023/09/28 00:01:37;;;;;;;3.15;1.70;;;;;;;19.16;52.85;100068.91;4481707;32;33956;-81
2023/09/28 00:04:06;;;;;;;3.67;1.50;;;;;;;19.40;52.55;100066.09;4487647;32;33690;-80
2023/09/28 00:06:39;;;;;;;5.60;1.80;;;;;;;19.23;52.40;100066.84;4480580;32;34384;-79
2023/09/28 00:09:10;;;;;;;2.70;1.65;;;;;;;19.35;52.84;100066.34;4478614;32;33706;-81
2023/09/28 00:11:38;;;;;;;3.47;1.77;;;;;;;19.08;53.76;100072.75;4480709;32;34092;-79
2023/09/28 00:14:07;;;;;;;3.80;1.62;;;;;;;19.20;53.60;100064.34;4477464;32;32900;-81
2023/09/28 00:16:35;;;;;;;3.50;1.50;;;;;;;19.13;53.71;100065.53;4473870;32;32809;-81
2023/09/28 00:19:08;;;;;;;3.10;1.52;;;;;;;19.07;53.45;100066.66;4468724;32;34248;-80
2023/09/28 00:21:37;;;;;;;3.53;1.83;;;;;;;18.90;53.93;100066.50;4468821;32;34201;-79
2023/09/28 00:24:09;;;;;;;3.20;1.95;;;;;;;18.98;53.82;100061.78;4465773;32;33184;-79
2023/09/28 00:26:39;;;;;;;4.57;1.90;;;;;;;18.81;54.24;100054.59;4468560;32;33415;-78
2023/09/28 00:29:07;;;;;;;3.35;1.95;;;;;;;18.86;54.17;100063.13;4468282;32;33537;-80
2023/09/28 00:31:36;;;;;;;3.53;2.05;;;;;;;18.98;53.80;100059.12;4459561;32;33578;-79
2023/09/28 00:34:04;;;;;;;6.85;3.20;;;;;;;18.97;53.83;100063.56;4459650;32;33052;-79
2023/09/28 00:36:33;;;;;;;3.72;2.00;;;;;;;18.94;53.78;100062.81;4462729;32;33830;-80
2023/09/28 00:39:01;;;;;;;4.82;1.73;;;;;;;18.89;54.44;100064.78;4462427;32;34808;-80
2023/09/28 00:41:31;;;;;;;4.05;1.67;;;;;;;18.69;54.69;100061.16;4456351;32;34378;-80
2023/09/28 00:44:00;;;;;;;2.70;1.60;;;;;;;18.93;54.14;100066.38;4455582;32;34852;-81
2023/09/28 00:46:33;;;;;;;3.10;1.60;;;;;;;18.81;54.38;100064.25;4456895;32;33287;-79
2023/09/28 00:49:03;;;;;;;3.60;2.20;;;;;;;18.66;54.96;100057.81;4463542;32;34057;-79
2023/09/28 00:51:33;;;;;;;3.30;1.70;;;;;;;18.72;54.69;100055.78;4458026;32;33961;-81
2023/09/28 00:54:06;;;;;;;3.17;1.30;;;;;;;18.61;55.25;100059.78;4455833;32;33031;-81
2023/09/28 00:56:36;;;;;;;3.55;1.92;;;;;;;18.60;55.24;100055.44;4455223;32;34359;-80
2023/09/28 00:59:04;;;;;;;3.22;1.92;;;;;;;18.45;55.53;100060.38;4460436;32;33055;-80
2023/09/28 01:01:33;;;;;;;3.08;1.92;;;;;;;18.64;54.93;100057.03;4465856;32;33442;-80
2023/09/28 01:04:05;;;;;;;3.78;2.17;;;;;;;18.73;55.07;100056.66;4458408;32;33537;-81
2023/09/28 01:06:35;;;;;;;2.90;1.52;;;;;;;18.60;55.17;100060.69;4458522;32;33457;-79
2023/09/28 01:09:07;;;;;;;3.85;1.85;;;;;;;18.73;54.22;100056.66;4459821;32;34727;-81
2023/09/28 01:11:37;;;;;;;;;;;;;;;18.78;53.89;100053.87;4465386;32;34378;-81
2023/09/28 01:14:05;;;;;;;3.08;1.80;;;;;;;19.00;52.78;100059.94;4459331;32;32581;-82
2023/09/28 01:16:36;;;;;;;3.40;1.73;;;;;;;18.86;52.88;100057.87;4457711;32;34963;-79
2023/09/28 01:19:06;;;;;;;4.60;2.28;;;;;;;18.94;52.83;100050.53;4459709;32;33760;-81
2023/09/28 01:21:35;;;;;;;3.58;1.90;;;;;;;18.93;52.99;100051.44;4463015;32;33428;-81
2023/09/28 01:24:06;;;;;;;3.58;1.67;;;;;;;18.87;52.81;100048.22;4464057;32;32942;-80
2023/09/28 01:26:35;;;;;;;2.97;1.70;;;;;;;18.98;52.61;100046.00;4458356;32;34644;-80
2023/09/28 01:29:05;;;;;;;2.28;1.58;;;;;;;19.18;52.13;100046.03;4455371;32;33514;-80
2023/09/28 01:31:34;;;;;;;3.97;2.10;;;;;;;19.19;52.08;100045.09;4457133;32;33749;-79
2023/09/28 01:34:02;;;;;;;4.03;1.92;;;;;;;19.27;51.98;100049.16;4465037;32;32586;-79
2023/09/28 01:36:31;;;;;;;5.68;1.85;;;;;;;19.11;52.63;100047.19;4465035;32;33604;-80
2023/09/28 01:39:02;;;;;;;2.97;1.80;;;;;;;19.19;52.51;100045.09;4465012;32;34494;-79
2023/09/28 01:41:32;;;;;;;2.40;1.58;;;;;;;19.09;52.72;100043.78;4460903;32;33582;-81
2023/09/28 01:44:00;;;;;;;2.50;1.77;;;;;;;19.19;52.48;100049.50;4464179;32;35111;-79
2023/09/28 01:46:29;;;;;;;3.55;1.80;;;;;;;19.16;52.82;100053.13;4459539;32;33882;-79
2023/09/28 01:48:57;;;;;;;3.10;1.73;;;;;;;19.01;53.10;100055.53;4460670;32;33985;-80
2023/09/28 01:51:26;;;;;;;2.95;1.35;;;;;;;19.18;52.33;100059.16;4458819;32;34176;-79
2023/09/28 01:53:54;;;;;;;3.85;1.92;;;;;;;19.12;52.45;100061.19;4458942;32;33137;-80
2023/09/28 01:56:23;;;;;;;3.25;1.60;;;;;;;19.25;52.08;100059.72;4462135;32;33908;-79
2023/09/28 01:58:52;;;;;;;3.60;1.52;;;;;;;19.17;52.10;100059.22;4460344;32;33870;-80
2023/09/28 02:01:23;;;;;;;4.07;1.95;;;;;;;19.01;52.44;100063.41;4455879;32;34292;-79
2023/09/28 02:03:53;;;;;;;3.15;1.83;;;;;;;19.20;52.17;100066.97;4458849;32;33002;-81
2023/09/28 02:06:22;;;;;;;5.70;2.25;;;;;;;19.09;52.50;100070.06;4464737;32;33836;-79
2023/09/28 02:08:50;;;;;;;4.15;1.87;;;;;;;19.07;52.38;100068.44;4459417;32;33979;-78
2023/09/28 02:11:19;;;;;;;3.72;1.67;;;;;;;19.29;51.84;100061.31;4459928;32;33698;-81
2023/09/28 02:13:47;;;;;;;2.97;1.80;;;;;;;19.35;51.47;100055.81;4460884;32;33816;-79
2023/09/28 02:16:18;;;;;;;6.97;2.30;;;;;;;19.26;51.90;100056.19;4458135;32;33809;-79
2023/09/28 02:18:46;;;;;;;2.75;2.08;;;;;;;19.10;52.22;100053.34;4466052;32;33548;-80
2023/09/28 02:21:15;;;;;;;3.97;2.53;;;;;;;19.15;52.14;100050.53;4459622;32;34922;-79
2023/09/28 02:23:43;;;;;;;3.25;1.80;;;;;;;19.25;51.62;100046.59;4460034;32;33279;-80
2023/09/28 02:26:12;;;;;;;5.72;2.28;;;;;;;19.32;51.72;100055.06;4459231;32;33464;-79
2023/09/28 02:28:39;;;;;;;4.07;2.37;;;;;;;19.17;52.08;100060.06;4462288;32;33654;-79
2023/09/28 02:31:09;;;;;;;3.67;1.95;;;;;;;19.19;51.70;100058.22;4458302;32;33938;-80
2023/09/28 02:33:39;;;;;;;4.30;1.70;;;;;;;19.26;51.76;100060.63;4457843;32;34184;-80
2023/09/28 02:36:08;;;;;;;1.98;1.45;;;;;;;19.08;52.56;100064.88;4458968;32;33606;-80
2023/09/28 02:38:37;;;;;;;3.12;1.58;;;;;;;19.24;52.19;100057.19;4465925;32;33714;-81
2023/09/28 02:41:05;;;;;;;4.93;1.92;;;;;;;19.23;52.10;100065.97;4458214;32;33709;-80
2023/09/28 02:43:33;;;;;;;3.70;2.08;;;;;;;19.20;52.32;100066.97;4459649;32;33895;-79
2023/09/28 02:46:03;;;;;;;3.20;2.20;;;;;;;19.40;51.67;100068.72;4455848;32;33400;-82
2023/09/28 02:48:32;;;;;;;3.80;1.65;;;;;;;19.17;52.46;100064.47;4459867;32;34103;-81
2023/09/28 02:51:02;;;;;;;3.53;1.73;;;;;;;19.13;53.04;100055.00;4463036;32;33772;-81
2023/09/28 02:53:32;;;;;;;3.20;1.77;;;;;;;19.12;53.33;100055.94;4459934;32;33870;-80
2023/09/28 02:56:00;;;;;;;4.25;1.90;;;;;;;19.09;52.94;100056.94;4458718;32;33636;-80
2023/09/28 02:58:28;;;;;;;3.35;1.40;;;;;;;19.08;52.63;100057.81;4462231;32;33755;-80
2023/09/28 03:00:57;;;;;;;3.12;1.65;;;;;;;19.06;52.89;100058.81;4462561;32;33291;-80
2023/09/28 03:03:25;;;;;;;3.37;1.75;;;;;;;18.88;53.38;100061.31;4461058;32;32892;-79
2023/09/28 03:05:55;;;;;;;3.22;1.77;;;;;;;19.02;52.93;100057.25;4460521;32;34177;-80
2023/09/28 03:08:24;;;;;;;4.25;2.03;;;;;;;18.80;53.32;100058.16;4445657;32;33911;-80
2023/09/28 03:10:53;;;;;;;3.47;1.70;;;;;;;18.94;52.96;100058.44;4450970;32;33780;-79
2023/09/28 03:13:24;;;;;;;4.25;2.25;;;;;;;18.90;53.30;100056.00;4450499;32;32453;-80
2023/09/28 03:15:53;;;;;;;3.78;1.80;;;;;;;19.15;52.76;100059.28;4445209;32;34736;-80
2023/09/28 03:18:22;;;;;;;3.50;1.73;;;;;;;19.07;53.05;100050.03;4473704;32;33727;-80
2023/09/28 03:20:50;;;;;;;2.55;1.37;;;;;;;18.89;53.61;100060.38;4460652;32;33781;-80
2023/09/28 03:23:19;;;;;;;2.97;1.50;;;;;;;18.85;53.92;100061.44;4466479;32;34224;-79
2023/09/28 03:25:49;;;;;;;3.15;1.90;;;;;;;18.81;54.22;100064.25;4460508;32;33832;-81
2023/09/28 03:28:17;;;;;;;4.77;1.83;;;;;;;18.81;54.17;100069.50;4460571;32;33764;-81
2023/09/28 03:30:46;;;;;;;3.33;1.60;;;;;;;18.78;54.36;100070.50;4460347;32;34301;-82
2023/09/28 03:33:14;;;;;;;4.07;1.92;;;;;;;18.53;55.07;100067.94;4463288;32;33454;-80
2023/09/28 03:35:42;;;;;;;5.28;1.87;;;;;;;18.78;54.72;100077.53;4459418;32;33490;-80
2023/09/28 03:38:11;;;;;;;2.00;1.55;;;;;;;18.60;55.12;100069.41;4458342;32;33619;-80
2023/09/28 03:40:43;;;;;;;5.25;2.03;;;;;;;18.42;55.70;100083.31;4457834;32;33237;-80
2023/09/28 03:43:13;;;;;;;4.85;1.73;;;;;;;18.23;56.15;100081.37;4459556;32;33145;-81
2023/09/28 03:45:42;;;;;;;5.40;2.03;;;;;;;18.10;56.51;100078.38;4463128;32;34304;-81
2023/09/28 03:48:11;;;;;;;3.67;1.50;;;;;;;18.15;56.47;100088.72;4459855;32;34767;-80
2023/09/28 03:50:40;;;;;;;3.80;1.75;;;;;;;18.23;56.29;100083.16;4455898;32;32141;-81
2023/09/28 03:53:09;;;;;;;2.95;1.77;;;;;;;18.08;56.75;100093.31;4457354;32;32889;-81
2023/09/28 03:55:37;;;;;;;3.22;1.23;;;;;;;17.95;57.28;100093.84;4462678;32;34202;-80
2023/09/28 03:58:06;;;;;;;2.25;1.52;;;;;;;18.21;56.50;100087.59;4456645;32;33467;-80
2023/09/28 04:00:37;;;;;;;3.58;1.98;;;;;;;18.02;56.96;100090.06;4455893;32;33662;-81
2023/09/28 04:03:08;;;;;;;4.37;2.10;;;;;;;17.94;57.21;100086.88;4455707;32;32923;-80
2023/09/28 04:05:37;;;;;;;3.03;1.80;;;;;;;17.91;57.37;100086.09;4459182;32;33426;-80
2023/09/28 04:08:06;;;;;;;4.07;1.75;;;;;;;17.91;57.65;100090.47;4474251;32;33591;-79
2023/09/28 04:10:35;;;;;;;4.60;2.42;;;;;;;17.85;57.70;100091.53;4468880;32;34273;-80
2023/09/28 04:13:04;;;;;;;4.90;1.90;;;;;;;17.74;57.89;100088.44;4460390;32;33299;-80
2023/09/28 04:15:33;;;;;;;5.28;2.47;;;;;;;17.79;58.15;100089.13;4459740;32;33910;-80
2023/09/28 04:18:04;;;;;;;3.30;1.70;;;;;;;17.66;58.24;100082.59;4464679;32;34194;-81
2023/09/28 04:20:33;;;;;;;5.05;2.30;;;;;;;17.84;57.83;100084.59;4460699;32;34169;-81
2023/09/28 04:23:05;;;;;;;3.78;2.05;;;;;;;17.95;57.27;100088.59;4459381;32;33086;-80
2023/09/28 04:25:36;;;;;;;2.33;1.60;;;;;;;17.87;57.54;100094.97;4458595;32;33222;-82
2023/09/28 04:28:05;;;;;;;3.30;1.62;;;;;;;17.87;57.75;100091.50;4462257;32;34404;-80
2023/09/28 04:30:36;;;;;;;5.50;2.22;;;;;;;17.80;57.94;100096.09;4465583;32;33102;-80
2023/09/28 04:33:06;;;;;;;5.50;2.55;;;;;;;17.88;58.03;100104.56;4460592;32;33354;-79
2023/09/28 04:35:37;;;;;;;4.95;2.22;;;;;;;17.68;58.70;100097.38;4457132;32;33634;-80
2023/09/28 04:38:07;;;;;;;4.18;1.83;;;;;;;17.52;58.51;100092.72;4460109;32;34165;-81
2023/09/28 04:40:37;;;;;;;4.82;2.10;;;;;;;17.77;58.28;100097.97;4463669;32;33921;-81
2023/09/28 04:43:05;;;;;;;5.62;2.40;;;;;;;17.86;57.95;100095.91;4460261;32;33852;-80
2023/09/28 04:45:35;;;;;;;3.37;1.85;;;;;;;17.91;57.87;100107.06;4460223;32;34377;-81
2023/09/28 04:48:04;;;;;;;2.72;1.98;;;;;;;17.93;57.56;100104.41;4460620;32;34580;-80
2023/09/28 04:50:34;;;;;;;2.40;1.65;;;;;;;17.79;58.04;100109.28;4465960;32;34277;-81
2023/09/28 04:53:04;;;;;;;4.78;1.90;;;;;;;17.95;57.43;100101.72;4465403;32;34111;-80
2023/09/28 04:55:33;;;;;;;3.70;2.00;;;;;;;17.95;57.66;100105.19;4458138;32;32960;-82
2023/09/28 04:58:02;;;;;;;4.12;1.80;;;;;;;17.95;57.62;100109.59;4459708;32;34132;-80
2023/09/28 05:00:32;;;;;;;3.45;1.85;;;;;;;17.89;57.82;100111.53;4461653;32;33428;-81
2023/09/28 05:03:03;;;;;;;5.93;2.30;;;;;;;17.82;58.47;100117.91;4467515;32;33052;-80
2023/09/28 05:05:34;;;;;;;4.47;1.90;;;;;;;17.90;57.73;100115.00;4447041;32;34688;-81
2023/09/28 05:08:03;;;;;;;3.30;2.20;;;;;;;17.96;57.87;100113.94;4452193;32;34052;-82
2023/09/28 05:10:32;;;;;;;4.35;1.83;;;;;;;17.88;58.04;100116.84;4464426;32;33461;-80
2023/09/28 05:13:01;;;;;;;5.03;2.45;;;;;;;18.03;57.71;100116.28;4467274;32;33113;-80
2023/09/28 05:15:30;;;;;;;3.67;2.28;;;;;;;17.58;59.45;100118.75;4467547;32;35230;-80
2023/09/28 05:17:59;;;;;;;2.87;1.70;;;;;;;17.85;58.59;100125.66;4457955;32;33729;-82
2023/09/28 05:20:28;;;;;;;3.00;1.85;;;;;;;17.77;58.98;100127.69;4450811;32;33892;-82
2023/09/28 05:22:58;;;;;;;3.53;1.75;;;;;;;17.90;58.52;100121.13;4452784;32;33045;-80
2023/09/28 05:25:30;;;;;;;3.55;1.90;;;;;;;17.97;58.23;100123.50;4461367;32;34595;-81
2023/09/28 05:28:00;;;;;;;4.28;2.08;;;;;;;17.78;58.91;100129.38;4455101;32;33914;-80
2023/09/28 05:30:29;;;;;;;4.57;2.00;;;;;;;18.18;57.50;100130.59;4459464;32;33370;-79
2023/09/28 05:32:58;;;;;;;3.60;2.03;;;;;;;18.11;57.98;100134.38;4457287;32;33050;-81
2023/09/28 05:35:27;;;;;;;3.78;2.00;;;;;;;18.20;57.92;100135.81;4461781;32;34373;-79
2023/09/28 05:37:57;;;;;;;3.22;1.83;;;;;;;18.20;58.07;100127.94;4455891;32;34575;-79
2023/09/28 05:40:26;;;;;;;2.97;1.57;;;;;;;18.14;58.25;100142.13;4460351;32;32854;-81
2023/09/28 05:42:55;;;;;;;5.97;2.10;;;;;;;18.22;58.07;100134.81;4457358;32;33767;-80
2023/09/28 05:45:24;;;;;;;5.28;2.20;;;;;;;17.98;58.91;100128.72;4457707;32;34009;-79
2023/09/28 05:47:53;;;;;;;4.22;2.30;;;;;;;18.06;58.81;100136.31;4464188;32;34856;-81
2023/09/28 05:50:22;;;;;;;5.75;1.92;;;;;;;18.24;57.55;100142.63;4462242;32;34158;-80
2023/09/28 05:52:52;;;;;;;10.05;2.55;;;;;;;18.07;58.46;100136.25;4459716;32;33946;-80
2023/09/28 05:55:24;;;;;;;7.12;3.10;;;;;;;18.20;57.77;100125.28;4455066;32;33581;-82
2023/09/28 05:57:54;;;;;;;2.97;1.80;;;;;;;18.20;58.06;100134.03;4464164;32;34505;-81
2023/09/28 06:00:22;;;;;;;4.72;2.60;;;;;;;18.17;58.47;100138.53;4457012;32;34404;-81
2023/09/28 06:02:51;;;;;;;3.15;1.70;;;;;;;18.45;57.91;100141.81;4456544;32;33363;-81
2023/09/28 06:05:20;;;;;;;3.47;2.03;;;;;;;18.41;58.33;100142.88;4454918;32;33904;-81
2023/09/28 06:07:51;;;;;;;3.58;2.08;;;;;;;18.34;58.79;100149.28;4456307;32;34408;-80
2023/09/28 06:10:21;;;;;;;4.45;2.10;;;;;;;18.61;58.24;100151.75;4461661;32;33459;-80
2023/09/28 06:12:51;;;;;;;3.65;1.80;;;;;;;18.58;58.47;100147.47;4455754;32;33887;-81
2023/09/28 06:15:20;;;;;;;3.53;1.87;;;;;;;18.52;58.79;100152.94;4454558;32;33062;-81
2023/09/28 06:17:49;;;;;;;5.70;2.65;;;;;;;18.53;58.93;100157.28;4459181;32;34022;-81
2023/09/28 06:20:17;;;;;;;4.28;1.80;;;;;;;18.72;58.00;100160.06;4462989;32;34509;-80
2023/09/28 06:22:46;;;;;;;3.85;2.08;;;;;;;18.70;57.68;100154.88;4457328;32;31851;-81
2023/09/28 06:25:16;;;;;;;3.97;2.05;;;;;;;18.93;57.69;100158.38;4458880;32;34807;-79
2023/09/28 06:27:45;;;;;;;4.55;2.03;;;;;;;18.74;58.12;100153.81;4459116;32;32394;-81
2023/09/28 06:30:16;;;;;;;5.03;2.42;;;;;;;18.95;57.36;100151.31;4463337;32;33381;-80
2023/09/28 06:32:44;;;;;;;5.78;2.50;;;;;;;18.85;57.76;100158.69;4464759;32;33422;-80
2023/09/28 06:35:14;;;;;;;5.32;2.55;;;;;;;18.88;57.95;100155.09;4457012;32;34699;-79
2023/09/28 06:37:43;;;;;;;5.03;2.35;;;;;;;18.79;58.26;100161.56;4456757;32;34753;-80
2023/09/28 06:40:12;;;;;;;3.08;1.87;;;;;;;18.72;58.57;100160.91;4458460;32;33770;-80
2023/09/28 06:42:41;;;;;;;5.95;2.90;;;;;;;18.66;58.96;100155.91;4463870;32;33364;-80
2023/09/28 06:45:12;;;;;;;2.53;1.80;;;;;;;19.10;57.71;100161.19;4459897;32;33881;-79
2023/09/28 06:47:43;;;;;;;4.50;1.95;;;;;;;19.21;57.43;100159.88;4456888;32;34663;-81
2023/09/28 06:50:29;;;;;;;4.35;2.28;;;;;;;18.94;58.23;100160.09;4457406;32;34570;-79
2023/09/28 06:52:58;;;;;;;4.10;2.33;;;;;;;19.09;57.68;100174.41;4454248;32;33269;-79
2023/09/28 06:55:27;;;;;;;3.80;1.80;;;;;;;18.94;57.77;100165.34;4463905;32;34586;-80
2023/09/28 06:57:56;;;;;;;3.50;1.62;;;;;;;19.36;56.72;100162.75;4460814;32;34795;-78
2023/09/28 07:00:26;;;;;;;4.00;1.75;;;;;;;18.90;57.71;100166.41;4456582;32;33500;-80
2023/09/28 07:02:56;;;;;;;3.45;1.62;;;;;;;19.52;56.44;100162.06;4460303;32;33660;-80
2023/09/28 07:05:25;;;;;;;3.60;1.90;;;;;;;19.27;56.86;100162.28;4464026;32;33471;-80
2023/09/28 07:07:54;;;;;;;3.62;1.73;;;;;;;18.97;57.24;100160.00;4449690;32;34029;-80
2023/09/28 07:10:23;;;;;;;5.43;2.33;;;;;;;19.60;55.70;100167.91;4457407;32;33696;-81
2023/09/28 07:12:52;;;;;;;4.65;2.37;;;;;;;19.70;55.65;100171.88;4455649;32;32928;-80
2023/09/28 07:15:22;;;;;;;2.80;1.30;;;;;;;19.93;54.99;100170.00;4457959;32;34446;-79
2023/09/28 07:17:51;;;;;;;5.40;2.12;;;;;;;19.93;54.99;100180.53;4459960;32;33976;-80
2023/09/28 07:20:21;;;;;;;5.60;2.35;;;;;;;20.08;55.02;100179.87;4456214;32;34149;-80
2023/09/28 07:22:50;;;;;;;4.18;2.35;;;;;;;20.34;53.87;100189.19;4457254;32;34616;-80
2023/09/28 07:25:19;;;;;;;4.75;2.17;;;;;;;20.41;53.89;100180.09;4457250;32;34085;-81
2023/09/28 07:27:49;;;;;;;4.05;1.85;;;;;;;20.52;52.86;100189.31;4464444;32;33836;-79
2023/09/28 07:30:19;;;;;;;2.80;1.65;;;;;;;20.41;53.19;100184.50;4456018;32;31890;-80
2023/09/28 07:32:48;;;;;;;2.97;1.75;;;;;;;20.61;53.07;100187.13;4458465;32;33033;-79
2023/09/28 07:35:19;;;;;;;3.33;1.65;;;;;;;20.64;53.06;100191.41;4459489;32;33604;-81
2023/09/28 07:37:49;;;;;;;4.50;1.73;;;;;;;20.04;53.61;100187.03;4457172;32;33371;-81
2023/09/28 07:40:24;;;;;;;4.93;3.58;;;;;;;20.29;53.22;100196.47;4461585;32;31811;-81
2023/09/28 07:43:13;;;;;;;4.43;2.17;;;;;;;20.43;53.04;100194.06;4455882;32;33835;-79
2023/09/28 07:45:42;;;;;;;4.78;2.35;;;;;;;20.54;52.22;100197.97;4460740;32;33884;-81
2023/09/28 07:48:11;;;;;;;4.15;2.00;;;;;;;20.41;52.09;100197.69;4459148;32;34460;-80
2023/09/28 07:50:40;;;;;;;3.67;1.75;;;;;;;20.72;51.24;100189.25;4464716;32;33538;-78
2023/09/28 07:53:11;;;;;;;7.45;2.03;;;;;;;20.28;52.67;100189.50;4467476;32;33295;-80
2023/09/28 07:55:40;;;;;;;8.37;2.87;;;;;;;20.66;52.67;100192.19;4462203;32;34610;-79
2023/09/28 07:58:08;;;;;;;5.45;2.12;;;;;;;20.76;51.21;100198.72;4462354;32;33672;-81
2023/09/28 08:00:54;;;;;;;6.57;2.17;;;;;;;20.94;51.44;100201.41;4462666;32;34544;-80
2023/09/28 08:03:23;;;;;;;5.00;1.98;;;;;;;21.28;50.28;100198.84;4468031;32;33135;-79
2023/09/28 08:05:54;;;;;;;4.43;1.85;;;;;;;21.20;50.02;100201.00;4462287;32;33886;-80
2023/09/28 08:08:25;;;;;;;2.40;1.80;;;;;;;21.06;50.95;100198.19;4458599;32;33513;-81
2023/09/28 08:10:54;;;;;;;2.75;2.22;;;;;;;21.08;50.68;100202.47;4459223;32;33801;-81
2023/09/28 08:13:23;;;;;;;4.85;1.98;;;;;;;21.25;49.96;100200.78;4455363;32;33744;-80
2023/09/28 08:15:53;;;;;;;5.32;1.77;;;;;;;21.24;49.20;100199.94;4461405;32;33173;-79
2023/09/28 08:18:22;;;;;;;10.87;2.57;;;;;;;21.42;49.13;100202.63;4459371;32;36262;-80
2023/09/28 08:20:52;;;;;;;4.90;2.03;;;;;;;21.47;49.11;100195.31;4458761;32;34164;-79
2023/09/28 08:23:39;;;;;;;2.85;1.80;;;;;;;21.51;50.24;100202.16;4455193;32;33961;-80
2023/09/28 08:26:10;;;;;;;7.68;2.28;;;;;;;21.79;48.97;100198.09;4456585;32;34285;-80
2023/09/28 08:28:39;;;;;;;6.75;2.50;;;;;;;21.65;49.27;100204.09;4467271;32;33834;-79
2023/09/28 08:31:09;;;;;;;3.40;1.85;;;;;;;21.60;48.82;100200.81;4456298;32;33341;-79
2023/09/28 08:33:38;;;;;;;4.10;1.63;;;;;;;21.93;48.69;100200.88;4461677;32;34650;-81
2023/09/28 08:36:09;;;;;;;5.20;2.30;;;;;;;21.98;48.65;100198.00;4458246;32;33162;-81
2023/09/28 08:38:39;;;;;;;;;;;;;;;21.62;49.89;100202.47;4463677;32;34289;-80
2023/09/28 08:41:10;;;;;;;3.45;1.90;;;;;;;22.08;48.61;100193.94;4458975;32;35547;-81
2023/09/28 08:43:43;;;;;;;3.90;1.55;;;;;;;22.07;48.63;100201.03;4458786;32;33505;-81
2023/09/28 08:46:14;;;;;;;4.18;2.10;;;;;;;22.17;48.49;100193.47;4453221;32;34528;-81
2023/09/28 08:48:46;;;;;;;3.40;2.42;;;;;;;22.27;48.13;100199.13;4455898;32;33887;-81
2023/09/28 08:51:15;;;;;;;;;;;;;;;22.36;47.59;100186.28;4463744;32;34381;-79
2023/09/28 08:53:52;;;;;;;6.32;1.87;;;;;;;22.33;48.02;100194.38;4457464;32;32674;-81
2023/09/28 08:56:22;;;;;;;4.85;2.08;;;;;;;22.51;47.36;100186.37;4460616;32;34426;-81
2023/09/28 08:58:51;;;;;;;4.65;2.00;;;;;;;22.60;47.07;100185.87;4460375;32;33703;-81
2023/09/28 09:01:20;;;;;;;6.68;2.97;;;;;;;22.50;47.47;100180.25;4464796;32;33438;-80
2023/09/28 09:03:50;;;;;;;4.50;2.58;;;;;;;22.69;47.16;100189.78;4464827;32;33253;-80
2023/09/28 09:06:20;;;;;;;3.90;1.92;;;;;;;22.80;47.03;100187.41;4459147;32;33886;-80
2023/09/28 09:08:54;;;;;;;3.37;2.10;;;;;;;22.80;47.10;100182.97;4459959;32;33826;-79
2023/09/28 09:11:24;;;;;;;7.05;2.67;;;;;;;23.12;47.17;100184.75;4461691;32;33703;-79
2023/09/28 09:13:54;;;;;;;3.08;1.65;;;;;;;23.00;47.17;100179.25;4462891;32;33976;-79
2023/09/28 09:16:27;;;;;;;3.08;1.60;;;;;;;22.88;46.86;100184.31;4456382;32;34414;-81
2023/09/28 09:18:56;;;;;;;2.47;1.70;;;;;;;23.08;46.13;100183.25;4457237;32;34069;-80
2023/09/28 09:21:27;;;;;;;3.65;1.92;;;;;;;23.07;46.92;100181.53;4456224;32;33712;-80
2023/09/28 09:24:06;;;;;;;3.55;1.70;;;;;;;23.07;46.45;100184.19;4460392;32;32386;-80
2023/09/28 09:26:40;;;;;;;7.05;1.55;;;;;;;22.94;46.13;100184.84;4465852;32;33750;-81
2023/09/28 09:29:10;;;;;;;4.68;2.60;;;;;;;23.27;46.33;100186.53;4456182;32;35757;-80
2023/09/28 09:31:40;;;;;;;6.78;2.12;;;;;;;23.31;45.91;100181.91;4456155;32;34367;-81
2023/09/28 09:34:12;;;;;;;10.73;2.10;;;;;;;23.53;45.86;100181.50;4455232;32;32935;-80
2023/09/28 09:36:42;;;;;;;4.97;2.70;;;;;;;23.45;46.57;100181.97;4462078;32;34620;-81
2023/09/28 09:39:22;;;;;;;6.70;3.20;;;;;;;23.63;45.59;100177.34;4462234;32;34436;-80
2023/09/28 09:41:53;;;;;;;3.78;1.98;;;;;;;23.70;45.41;100184.00;4458251;32;34333;-80
2023/09/28 09:44:22;;;;;;;5.20;2.28;;;;;;;23.38;46.20;100181.47;4458230;32;32813;-79
2023/09/28 09:46:52;;;;;;;8.43;1.65;;;;;;;23.76;45.13;100175.72;4458437;32;33706;-81
2023/09/28 09:49:24;;;;;;;3.20;1.70;;;;;;;23.62;45.79;100176.50;4461355;32;33128;-81
2023/09/28 09:51:54;;;;;;;6.35;2.33;;;;;;;23.80;45.51;100177.25;4458540;32;34152;-79
2023/09/28 09:54:24;;;;;;;4.10;2.00;;;;;;;23.77;45.27;100181.88;4458704;32;32932;-79
2023/09/28 09:56:57;;;;;;;3.60;1.75;;;;;;;23.87;45.03;100169.75;4458736;32;33640;-80
2023/09/28 09:59:28;;;;;;;9.05;1.80;;;;;;;23.47;46.27;100180.06;4460217;32;33986;-82
2023/09/28 10:01:57;;;;;;;6.90;2.42;;;;;;;24.11;44.86;100183.31;4466657;32;33550;-81
2023/09/28 10:04:28;;;;;;;3.87;1.93;;;;;;;24.20;44.18;100180.09;4460489;32;32385;-80
2023/09/28 10:07:00;;;;;;;3.37;1.90;;;;;;;24.23;44.31;100179.87;4462006;32;33833;-81
2023/09/28 10:09:31;;;;;;;3.70;1.80;;;;;;;24.41;43.95;100185.00;4461569;32;33761;-81
2023/09/28 10:11:59;;;;;;;11.68;2.37;;;;;;;24.07;44.49;100179.16;4466626;32;33050;-79
2023/09/28 10:14:28;;;;;;;2.65;1.77;;;;;;;24.39;43.80;100184.25;4461159;32;34221;-80
2023/09/28 10:16:57;;;;;;;3.80;2.40;;;;;;;24.39;43.90;100176.31;4461419;32;33748;-80
2023/09/28 10:19:27;;;;;;;4.20;1.90;;;;;;;24.65;43.62;100175.53;4461217;32;33621;-79
2023/09/28 10:21:57;;;;;;;3.00;1.77;;;;;;;24.62;43.89;100173.09;4461157;32;32487;-80
2023/09/28 10:24:32;;;;;;;4.85;2.15;;;;;;;24.54;43.63;100170.03;4467140;32;33581;-81
2023/09/28 10:27:08;;;;;;;6.25;2.05;;;;;;;24.83;42.73;100170.81;4459973;32;33556;-81
2023/09/28 10:29:37;;;;;;;4.60;2.05;;;;;;;24.77;42.93;100173.06;4457253;32;34235;-79
2023/09/28 10:32:13;;;;;;;3.78;1.87;;;;;;;24.73;43.07;100175.03;4455164;32;34448;-80
2023/09/28 10:34:45;;;;;;;4.43;1.65;;;;;;;25.08;42.62;100170.09;4459161;32;34026;-81
2023/09/28 10:37:22;;;;;;;3.45;1.80;;;;;;;24.91;43.28;100165.87;4458941;32;33936;-80
2023/09/28 10:39:57;;;;;;;5.65;2.12;;;;;;;25.22;41.70;100171.00;4452456;32;34363;-79
2023/09/28 10:42:30;;;;;;;4.45;1.85;;;;;;;25.33;41.79;100182.59;4461244;32;33051;-80
2023/09/28 10:45:00;;;;;;;4.45;2.22;;;;;;;25.16;42.08;100174.03;4461151;32;34097;-79
2023/09/28 10:47:31;;;;;;;;;;;;;;;25.25;42.58;100166.34;4463842;32;34016;-80
2023/09/28 10:50:00;;;;;;;4.18;1.70;;;;;;;25.44;41.25;100163.31;4466616;32;33451;-80
2023/09/28 10:52:30;;;;;;;5.70;1.92;;;;;;;25.47;41.25;100167.56;4459569;32;33153;-79
2023/09/28 10:55:00;;;;;;;4.07;1.85;;;;;;;25.52;41.68;100163.63;4460823;32;33836;-79
2023/09/28 10:57:32;;;;;;;3.55;2.00;;;;;;;25.59;40.74;100158.75;4460764;32;34269;-80
2023/09/28 11:00:02;;;;;;;3.95;1.92;;;;;;;25.62;40.31;100155.87;4463008;32;34009;-81
2023/09/28 11:02:36;;;;;;;3.25;1.60;;;;;;;25.65;39.79;100154.81;4447887;32;33581;-79
2023/09/28 11:05:07;;;;;;;3.15;1.50;;;;;;;25.55;40.76;100160.75;4459377;32;33177;-81
2023/09/28 11:07:37;;;;;;;13.57;2.28;;;;;;;25.91;40.07;100148.59;4461182;32;33422;-80
2023/09/28 11:10:08;;;;;;;3.53;1.62;;;;;;;25.82;40.71;100154.50;4460472;32;33691;-79
2023/09/28 11:12:38;;;;;;;5.07;1.55;;;;;;;25.93;40.39;100143.16;4465883;32;34361;-81
2023/09/28 11:15:09;;;;;;;3.22;1.75;;;;;;;26.15;39.90;100139.84;4448580;32;33973;-79
2023/09/28 11:17:38;;;;;;;4.00;1.65;;;;;;;26.20;39.56;100145.69;4451584;32;33612;-79
2023/09/28 11:20:11;;;;;;;8.38;2.55;;;;;;;26.03;39.53;100138.06;4455165;32;33979;-80
2023/09/28 11:22:40;;;;;;;4.07;1.73;;;;;;;26.26;39.17;100126.59;4463049;32;33433;-79
2023/09/28 11:25:11;;;;;;;3.47;1.70;;;;;;;26.34;39.32;100126.94;4460325;32;33887;-79
2023/09/28 11:27:43;;;;;;;3.65;1.80;;;;;;;26.49;38.57;100127.63;4460329;32;33408;-81
2023/09/28 11:30:20;;;;;;;5.25;1.90;;;;;;;26.37;39.26;100132.03;4461654;32;34649;-80
2023/09/28 11:32:50;;;;;;;3.55;1.65;;;;;;;26.34;38.67;100124.28;4460189;32;33343;-80
2023/09/28 11:35:25;;;;;;;;;;;;;;;26.44;38.50;100128.94;4465885;32;33973;-80
2023/09/28 11:37:59;;;;;;;2.67;1.20;;;;;;;26.68;38.11;100131.66;4451805;32;34849;-80
2023/09/28 11:40:30;;;;;;;2.60;1.50;;;;;;;26.72;38.00;100125.97;4459776;32;34065;-80